QQE714 OLBA-LGSM
Flight info
| Callsign | QQE714 |
|---|---|
| Flight time | 1h 24m |
| Altitude | 40000 |
| Route | KUKLA M31 LCA M601 EVENO UM601 RDS UL609 LARKI |
| Aircraft | GLF6/M-SBDE2E3FGHIJ4J5M1RWXY/LB1D1 |
Departure
| Time | 2026-05-09 10:31 |
|---|---|
| Airport | Beirut Rafic Hariri International Airport (OLBA) |
Arrival
| Time | 2026-05-09 11:56 |
|---|---|
| Airport | Samos Airport (LGSM) |
| Time | Latitude | Longitude | Altitude | Speed | Heading |
|---|---|---|---|---|---|
| 2026-05-09 10:04 | 33.83029 | 35.49074 | 86 ft | 0 kts | 176° |
| 2026-05-09 10:25 | 33.83025 | 35.49074 | 86 ft | 1 kts | 176° |
| 2026-05-09 10:26 | 33.83006 | 35.49062 | 85 ft | 5 kts | 234° |
| 2026-05-09 10:26 | 33.82985 | 35.48991 | 83 ft | 10 kts | 227° |
| 2026-05-09 10:26 | 33.82893 | 35.48986 | 79 ft | 14 kts | 173° |
| 2026-05-09 10:26 | 33.82785 | 35.48993 | 76 ft | 16 kts | 180° |
| 2026-05-09 10:27 | 33.82654 | 35.48976 | 71 ft | 19 kts | 184° |
| 2026-05-09 10:27 | 33.82518 | 35.48983 | 66 ft | 15 kts | 174° |
| 2026-05-09 10:27 | 33.82399 | 35.48996 | 63 ft | 16 kts | 174° |
| 2026-05-09 10:27 | 33.82275 | 35.49013 | 61 ft | 17 kts | 171° |
| 2026-05-09 10:28 | 33.82146 | 35.49034 | 60 ft | 17 kts | 178° |
| 2026-05-09 10:28 | 33.82017 | 35.49041 | 60 ft | 16 kts | 176° |
| 2026-05-09 10:28 | 33.81900 | 35.49048 | 61 ft | 15 kts | 177° |
| 2026-05-09 10:28 | 33.81787 | 35.49054 | 61 ft | 15 kts | 175° |
| 2026-05-09 10:29 | 33.81683 | 35.49065 | 63 ft | 12 kts | 175° |
| 2026-05-09 10:29 | 33.81598 | 35.49070 | 65 ft | 10 kts | 177° |
| 2026-05-09 10:29 | 33.81524 | 35.49046 | 66 ft | 13 kts | 213° |
| 2026-05-09 10:29 | 33.81401 | 35.48941 | 69 ft | 24 kts | 216° |
| 2026-05-09 10:30 | 33.81251 | 35.48810 | 72 ft | 24 kts | 216° |
| 2026-05-09 10:30 | 33.81151 | 35.48700 | 75 ft | 6 kts | 261° |
| 2026-05-09 10:30 | 33.81181 | 35.48674 | 75 ft | 6 kts | 349° |
| 2026-05-09 10:30 | 33.81327 | 35.48632 | 71 ft | 52 kts | 346° |
| 2026-05-09 10:31 | 33.81997 | 35.48444 | 56 ft | 130 kts | 346° |
| 2026-05-09 10:31 | 33.83011 | 35.48215 | 562 ft | 149 kts | 349° |
| 2026-05-09 10:31 | 33.84061 | 35.48020 | 1426 ft | 153 kts | 348° |
| 2026-05-09 10:31 | 33.85152 | 35.47786 | 2354 ft | 155 kts | 349° |
| 2026-05-09 10:32 | 33.86304 | 35.47440 | 3120 ft | 168 kts | 340° |
| 2026-05-09 10:32 | 33.87537 | 35.46925 | 3876 ft | 186 kts | 340° |
| 2026-05-09 10:32 | 33.88887 | 35.46350 | 4555 ft | 209 kts | 339° |
| 2026-05-09 10:32 | 33.90144 | 35.45123 | 5252 ft | 234 kts | 307° |
| 2026-05-09 10:33 | 33.91184 | 35.43421 | 5968 ft | 260 kts | 305° |
| 2026-05-09 10:33 | 33.92382 | 35.41455 | 6714 ft | 285 kts | 305° |
| 2026-05-09 10:33 | 33.93593 | 35.39478 | 7417 ft | 288 kts | 305° |
| 2026-05-09 10:33 | 33.94814 | 35.37328 | 8160 ft | 286 kts | 299° |
| 2026-05-09 10:34 | 33.95858 | 35.35146 | 8891 ft | 288 kts | 299° |
| 2026-05-09 10:34 | 33.97814 | 35.31038 | 10257 ft | 314 kts | 298° |
| 2026-05-09 10:34 | 33.98967 | 35.28610 | 10998 ft | 332 kts | 299° |
| 2026-05-09 10:35 | 34.00147 | 35.26126 | 11712 ft | 349 kts | 299° |
| 2026-05-09 10:35 | 34.01375 | 35.23539 | 12408 ft | 362 kts | 299° |
| 2026-05-09 10:35 | 34.02625 | 35.20904 | 13121 ft | 362 kts | 298° |
| 2026-05-09 10:35 | 34.03870 | 35.18274 | 13813 ft | 360 kts | 298° |
| 2026-05-09 10:36 | 34.05106 | 35.15663 | 14459 ft | 359 kts | 298° |
| 2026-05-09 10:36 | 34.06347 | 35.13038 | 15174 ft | 361 kts | 299° |
| 2026-05-09 10:36 | 34.07643 | 35.10295 | 15861 ft | 364 kts | 299° |
| 2026-05-09 10:36 | 34.08944 | 35.07541 | 16584 ft | 366 kts | 299° |
| 2026-05-09 10:37 | 34.10302 | 35.04665 | 17307 ft | 367 kts | 299° |
| 2026-05-09 10:37 | 34.11636 | 35.01834 | 18037 ft | 369 kts | 299° |
| 2026-05-09 10:37 | 34.12907 | 34.99137 | 18785 ft | 372 kts | 298° |
| 2026-05-09 10:37 | 34.14187 | 34.96418 | 19474 ft | 377 kts | 298° |
| 2026-05-09 10:38 | 34.15502 | 34.93622 | 20181 ft | 380 kts | 298° |
| 2026-05-09 10:38 | 34.16805 | 34.90848 | 20878 ft | 383 kts | 298° |
| 2026-05-09 10:38 | 34.18114 | 34.88063 | 21573 ft | 386 kts | 298° |
| 2026-05-09 10:38 | 34.19432 | 34.85254 | 22273 ft | 387 kts | 298° |
| 2026-05-09 10:39 | 34.20764 | 34.82412 | 22977 ft | 386 kts | 298° |
| 2026-05-09 10:39 | 34.22080 | 34.79604 | 23685 ft | 385 kts | 298° |
| 2026-05-09 10:39 | 34.23391 | 34.76803 | 24400 ft | 383 kts | 298° |
| 2026-05-09 10:39 | 34.24724 | 34.74027 | 25113 ft | 381 kts | 301° |
| 2026-05-09 10:40 | 34.26208 | 34.71408 | 25836 ft | 377 kts | 302° |
| 2026-05-09 10:40 | 34.27678 | 34.68811 | 26557 ft | 373 kts | 302° |
| 2026-05-09 10:40 | 34.29176 | 34.66153 | 27290 ft | 368 kts | 302° |
| 2026-05-09 10:40 | 34.30751 | 34.63352 | 27863 ft | 373 kts | 302° |
| 2026-05-09 10:41 | 34.32349 | 34.60501 | 28439 ft | 395 kts | 302° |
| 2026-05-09 10:41 | 34.33935 | 34.57671 | 28982 ft | 413 kts | 302° |
| 2026-05-09 10:41 | 34.35593 | 34.54714 | 29515 ft | 431 kts | 302° |
| 2026-05-09 10:41 | 34.37353 | 34.51570 | 30057 ft | 447 kts | 302° |
| 2026-05-09 10:42 | 34.39125 | 34.48403 | 30582 ft | 457 kts | 302° |
| 2026-05-09 10:42 | 34.40969 | 34.45105 | 31120 ft | 457 kts | 302° |
| 2026-05-09 10:42 | 34.42785 | 34.41855 | 31647 ft | 450 kts | 302° |
| 2026-05-09 10:42 | 34.44538 | 34.38712 | 32164 ft | 445 kts | 302° |
| 2026-05-09 10:43 | 34.46287 | 34.35621 | 32684 ft | 443 kts | 302° |
| 2026-05-09 10:43 | 34.48070 | 34.32478 | 33226 ft | 441 kts | 301° |
| 2026-05-09 10:43 | 34.49826 | 34.29378 | 33765 ft | 441 kts | 301° |
| 2026-05-09 10:43 | 34.51553 | 34.26328 | 34314 ft | 438 kts | 301° |
| 2026-05-09 10:44 | 34.53288 | 34.23259 | 34869 ft | 436 kts | 301° |
| 2026-05-09 10:44 | 34.55032 | 34.20175 | 35340 ft | 435 kts | 301° |
| 2026-05-09 10:44 | 34.56715 | 34.17191 | 35756 ft | 432 kts | 301° |
| 2026-05-09 10:44 | 34.58423 | 34.14166 | 36184 ft | 430 kts | 301° |
| 2026-05-09 10:45 | 34.60109 | 34.11174 | 36608 ft | 428 kts | 301° |
| 2026-05-09 10:46 | 34.66860 | 33.99208 | 38131 ft | 428 kts | 302° |
| 2026-05-09 10:46 | 34.68548 | 33.96220 | 38379 ft | 426 kts | 301° |
| 2026-05-09 10:46 | 34.70232 | 33.93240 | 38632 ft | 425 kts | 302° |
| 2026-05-09 10:46 | 34.71890 | 33.90300 | 38884 ft | 424 kts | 302° |
| 2026-05-09 10:47 | 34.73560 | 33.87313 | 39131 ft | 424 kts | 301° |
| 2026-05-09 10:47 | 34.75213 | 33.84340 | 39381 ft | 425 kts | 301° |
| 2026-05-09 10:47 | 34.76882 | 33.81340 | 39638 ft | 424 kts | 301° |
| 2026-05-09 10:47 | 34.78546 | 33.78345 | 39888 ft | 423 kts | 301° |
| 2026-05-09 10:48 | 34.80178 | 33.75407 | 40052 ft | 424 kts | 301° |
| 2026-05-09 10:48 | 34.83498 | 33.69418 | 40051 ft | 425 kts | 301° |
| 2026-05-09 10:49 | 34.86794 | 33.63440 | 40042 ft | 421 kts | 299° |
| 2026-05-09 10:49 | 34.88948 | 33.56894 | 40054 ft | 420 kts | 289° |
| 2026-05-09 10:50 | 34.90915 | 33.50174 | 40067 ft | 420 kts | 288° |
| 2026-05-09 10:50 | 34.92866 | 33.43478 | 40072 ft | 418 kts | 288° |
| 2026-05-09 10:51 | 34.94814 | 33.36790 | 40091 ft | 418 kts | 289° |
| 2026-05-09 10:51 | 34.96762 | 33.30088 | 40102 ft | 418 kts | 288° |
| 2026-05-09 10:52 | 34.98705 | 33.23373 | 40111 ft | 418 kts | 288° |
| 2026-05-09 10:52 | 35.00635 | 33.16695 | 40127 ft | 417 kts | 288° |
| 2026-05-09 10:53 | 35.02560 | 33.10016 | 40126 ft | 418 kts | 288° |
| 2026-05-09 10:53 | 35.04493 | 33.03296 | 40134 ft | 419 kts | 288° |
| 2026-05-09 10:54 | 35.06424 | 32.96567 | 40132 ft | 420 kts | 288° |
| 2026-05-09 10:54 | 35.08302 | 32.89792 | 40133 ft | 419 kts | 287° |
| 2026-05-09 10:55 | 35.10110 | 32.83056 | 40119 ft | 418 kts | 287° |
| 2026-05-09 10:55 | 35.11917 | 32.76307 | 40120 ft | 418 kts | 287° |
| 2026-05-09 10:56 | 35.13730 | 32.69523 | 40094 ft | 417 kts | 287° |
| 2026-05-09 10:56 | 35.15521 | 32.62806 | 40088 ft | 417 kts | 287° |
| 2026-05-09 10:57 | 35.17319 | 32.56038 | 40072 ft | 416 kts | 288° |
| 2026-05-09 10:57 | 35.19105 | 32.49303 | 40079 ft | 416 kts | 288° |
| 2026-05-09 10:58 | 35.20887 | 32.42569 | 40061 ft | 415 kts | 288° |
| 2026-05-09 10:58 | 35.22665 | 32.35831 | 40051 ft | 417 kts | 287° |
| 2026-05-09 10:59 | 35.24454 | 32.29032 | 40056 ft | 416 kts | 287° |
| 2026-05-09 10:59 | 35.26227 | 32.22278 | 40049 ft | 415 kts | 287° |
| 2026-05-09 11:00 | 35.27998 | 32.15514 | 40058 ft | 416 kts | 287° |
| 2026-05-09 11:00 | 35.29748 | 32.08814 | 40055 ft | 414 kts | 287° |
| 2026-05-09 11:01 | 35.31514 | 32.02079 | 40046 ft | 414 kts | 287° |
| 2026-05-09 11:01 | 35.33276 | 31.95380 | 40048 ft | 415 kts | 288° |
| 2026-05-09 11:02 | 35.35048 | 31.88627 | 40053 ft | 416 kts | 287° |
| 2026-05-09 11:02 | 35.36806 | 31.81914 | 40053 ft | 416 kts | 287° |
| 2026-05-09 11:03 | 35.38565 | 31.75170 | 40042 ft | 415 kts | 287° |
| 2026-05-09 11:03 | 35.40319 | 31.68438 | 40046 ft | 415 kts | 287° |
| 2026-05-09 11:04 | 35.42069 | 31.61697 | 40051 ft | 415 kts | 288° |
| 2026-05-09 11:04 | 35.43812 | 31.54970 | 40049 ft | 415 kts | 288° |
| 2026-05-09 11:05 | 35.45556 | 31.48217 | 40051 ft | 416 kts | 288° |
| 2026-05-09 11:05 | 35.47307 | 31.41425 | 40049 ft | 415 kts | 288° |
| 2026-05-09 11:06 | 35.49031 | 31.34715 | 40047 ft | 415 kts | 287° |
| 2026-05-09 11:06 | 35.50798 | 31.27825 | 40059 ft | 416 kts | 287° |
| 2026-05-09 11:07 | 35.52530 | 31.21047 | 40061 ft | 415 kts | 287° |
| 2026-05-09 11:07 | 35.54250 | 31.14306 | 40057 ft | 415 kts | 287° |
| 2026-05-09 11:08 | 35.55962 | 31.07573 | 40060 ft | 415 kts | 287° |
| 2026-05-09 11:08 | 35.57690 | 31.00761 | 40055 ft | 415 kts | 287° |
| 2026-05-09 11:09 | 35.59403 | 30.93993 | 40061 ft | 415 kts | 287° |
| 2026-05-09 11:09 | 35.61100 | 30.87263 | 40056 ft | 415 kts | 287° |
| 2026-05-09 11:10 | 35.62831 | 30.80518 | 40053 ft | 414 kts | 288° |
| 2026-05-09 11:10 | 35.64585 | 30.73729 | 40054 ft | 414 kts | 288° |
| 2026-05-09 11:11 | 35.66312 | 30.67026 | 40060 ft | 414 kts | 288° |
| 2026-05-09 11:11 | 35.68058 | 30.60230 | 40054 ft | 414 kts | 288° |
| 2026-05-09 11:12 | 35.69785 | 30.53494 | 40056 ft | 414 kts | 288° |
| 2026-05-09 11:12 | 35.71514 | 30.46733 | 40055 ft | 413 kts | 288° |
| 2026-05-09 11:13 | 35.73231 | 30.39996 | 40051 ft | 412 kts | 288° |
| 2026-05-09 11:13 | 35.74955 | 30.33219 | 40055 ft | 412 kts | 287° |
| 2026-05-09 11:14 | 35.76666 | 30.26475 | 40066 ft | 412 kts | 287° |
| 2026-05-09 11:14 | 35.78367 | 30.19750 | 40060 ft | 412 kts | 287° |
| 2026-05-09 11:15 | 35.80072 | 30.12993 | 40052 ft | 411 kts | 287° |
| 2026-05-09 11:15 | 35.81762 | 30.06275 | 40058 ft | 411 kts | 287° |
| 2026-05-09 11:16 | 35.83465 | 29.99523 | 40051 ft | 413 kts | 288° |
| 2026-05-09 11:16 | 35.85281 | 29.92854 | 40049 ft | 411 kts | 288° |
| 2026-05-09 11:17 | 35.87095 | 29.86181 | 40046 ft | 412 kts | 288° |
| 2026-05-09 11:17 | 35.88907 | 29.79487 | 40045 ft | 414 kts | 288° |
| 2026-05-09 11:18 | 35.90731 | 29.72741 | 40046 ft | 413 kts | 288° |
| 2026-05-09 11:18 | 35.92537 | 29.66032 | 40046 ft | 413 kts | 288° |
| 2026-05-09 11:19 | 35.94341 | 29.59320 | 40044 ft | 413 kts | 288° |
| 2026-05-09 11:19 | 35.96147 | 29.52603 | 40042 ft | 411 kts | 289° |
| 2026-05-09 11:20 | 35.97958 | 29.45876 | 40040 ft | 411 kts | 288° |
| 2026-05-09 11:20 | 35.99757 | 29.39179 | 40033 ft | 412 kts | 288° |
| 2026-05-09 11:21 | 36.01564 | 29.32433 | 40045 ft | 411 kts | 288° |
| 2026-05-09 11:21 | 36.03349 | 29.25754 | 40048 ft | 411 kts | 288° |
| 2026-05-09 11:22 | 36.05137 | 29.19050 | 40048 ft | 411 kts | 288° |
| 2026-05-09 11:22 | 36.06926 | 29.12319 | 40052 ft | 410 kts | 287° |
| 2026-05-09 11:23 | 36.08705 | 29.05609 | 40052 ft | 411 kts | 288° |
| 2026-05-09 11:23 | 36.10480 | 28.98898 | 40046 ft | 409 kts | 288° |
| 2026-05-09 11:24 | 36.12237 | 28.92243 | 40042 ft | 410 kts | 288° |
| 2026-05-09 11:24 | 36.14011 | 28.85502 | 40042 ft | 412 kts | 288° |
| 2026-05-09 11:25 | 36.15781 | 28.78758 | 40046 ft | 412 kts | 287° |
| 2026-05-09 11:25 | 36.17554 | 28.71981 | 40049 ft | 411 kts | 288° |
| 2026-05-09 11:26 | 36.19317 | 28.65234 | 40043 ft | 411 kts | 288° |
| 2026-05-09 11:26 | 36.21064 | 28.58523 | 40044 ft | 411 kts | 288° |
| 2026-05-09 11:27 | 36.22823 | 28.51756 | 40043 ft | 411 kts | 288° |
| 2026-05-09 11:27 | 36.24568 | 28.45006 | 40037 ft | 409 kts | 288° |
| 2026-05-09 11:28 | 36.26298 | 28.38288 | 40041 ft | 408 kts | 288° |
| 2026-05-09 11:28 | 36.28013 | 28.31612 | 40046 ft | 408 kts | 287° |
| 2026-05-09 11:29 | 36.29741 | 28.24869 | 40050 ft | 408 kts | 287° |
| 2026-05-09 11:29 | 36.31449 | 28.18182 | 40051 ft | 406 kts | 287° |
| 2026-05-09 11:30 | 36.33114 | 28.11652 | 40048 ft | 387 kts | 287° |
| 2026-05-09 11:30 | 36.34098 | 28.08591 | 40023 ft | 386 kts | 300° |
| 2026-05-09 11:30 | 36.35903 | 28.06041 | 40040 ft | 394 kts | 312° |
| 2026-05-09 11:31 | 36.39938 | 28.01364 | 40037 ft | 399 kts | 313° |
| 2026-05-09 11:31 | 36.41971 | 27.99015 | 39894 ft | 402 kts | 313° |
| 2026-05-09 11:31 | 36.44032 | 27.96633 | 39427 ft | 402 kts | 313° |
| 2026-05-09 11:31 | 36.46064 | 27.94285 | 38927 ft | 397 kts | 312° |
| 2026-05-09 11:32 | 36.48083 | 27.91950 | 38432 ft | 391 kts | 313° |
| 2026-05-09 11:32 | 36.50074 | 27.89645 | 37949 ft | 390 kts | 312° |
| 2026-05-09 11:32 | 36.52056 | 27.87345 | 37469 ft | 389 kts | 313° |
| 2026-05-09 11:32 | 36.54039 | 27.85048 | 36990 ft | 389 kts | 312° |
| 2026-05-09 11:33 | 36.56004 | 27.82767 | 36511 ft | 390 kts | 312° |
| 2026-05-09 11:33 | 36.57985 | 27.80466 | 36026 ft | 390 kts | 313° |
| 2026-05-09 11:33 | 36.61955 | 27.75855 | 35058 ft | 389 kts | 312° |
| 2026-05-09 11:34 | 36.63930 | 27.73553 | 34582 ft | 390 kts | 312° |
| 2026-05-09 11:34 | 36.65916 | 27.71240 | 34101 ft | 390 kts | 312° |
| 2026-05-09 11:34 | 36.67896 | 27.68934 | 33625 ft | 389 kts | 311° |
| 2026-05-09 11:34 | 36.69900 | 27.66597 | 33146 ft | 393 kts | 312° |
| 2026-05-09 11:35 | 36.71888 | 27.64273 | 32650 ft | 395 kts | 312° |
| 2026-05-09 11:35 | 36.73904 | 27.61921 | 32157 ft | 399 kts | 312° |
| 2026-05-09 11:35 | 36.75950 | 27.59527 | 31657 ft | 402 kts | 312° |
| 2026-05-09 11:35 | 36.78008 | 27.57120 | 31149 ft | 406 kts | 312° |
| 2026-05-09 11:36 | 36.80057 | 27.54722 | 30654 ft | 401 kts | 311° |
| 2026-05-09 11:36 | 36.82067 | 27.52371 | 30161 ft | 394 kts | 312° |
| 2026-05-09 11:36 | 36.84058 | 27.50035 | 29675 ft | 390 kts | 311° |
| 2026-05-09 11:36 | 36.86009 | 27.47744 | 29210 ft | 389 kts | 311° |
| 2026-05-09 11:37 | 36.88002 | 27.45405 | 28729 ft | 387 kts | 311° |
| 2026-05-09 11:37 | 36.89968 | 27.43095 | 28247 ft | 386 kts | 311° |
| 2026-05-09 11:37 | 36.91903 | 27.40819 | 27773 ft | 386 kts | 311° |
| 2026-05-09 11:37 | 36.93880 | 27.38491 | 27294 ft | 385 kts | 311° |
| 2026-05-09 11:38 | 36.95813 | 27.36215 | 26815 ft | 383 kts | 311° |
| 2026-05-09 11:38 | 36.97527 | 27.34195 | 26399 ft | 382 kts | 310° |
| 2026-05-09 11:38 | 36.99484 | 27.31887 | 25927 ft | 380 kts | 311° |
| 2026-05-09 11:38 | 37.01407 | 27.29617 | 25462 ft | 380 kts | 311° |
| 2026-05-09 11:39 | 37.03312 | 27.27368 | 24990 ft | 379 kts | 310° |
| 2026-05-09 11:39 | 37.05231 | 27.25099 | 24516 ft | 377 kts | 311° |
| 2026-05-09 11:39 | 37.07126 | 27.22858 | 24043 ft | 376 kts | 311° |
| 2026-05-09 11:40 | 37.10949 | 27.18331 | 23110 ft | 376 kts | 310° |
| 2026-05-09 11:40 | 37.12847 | 27.16080 | 22638 ft | 373 kts | 311° |
| 2026-05-09 11:40 | 37.14715 | 27.13864 | 22180 ft | 371 kts | 311° |
| 2026-05-09 11:40 | 37.16581 | 27.11651 | 21721 ft | 368 kts | 311° |
| 2026-05-09 11:41 | 37.18419 | 27.09467 | 21268 ft | 365 kts | 311° |
| 2026-05-09 11:41 | 37.20257 | 27.07280 | 20821 ft | 364 kts | 311° |
| 2026-05-09 11:41 | 37.22089 | 27.05100 | 20370 ft | 361 kts | 311° |
| 2026-05-09 11:41 | 37.23911 | 27.02932 | 19920 ft | 358 kts | 311° |
| 2026-05-09 11:42 | 37.25714 | 27.00785 | 19478 ft | 358 kts | 311° |
| 2026-05-09 11:42 | 37.27507 | 26.98647 | 19036 ft | 355 kts | 311° |
| 2026-05-09 11:42 | 37.29308 | 26.96496 | 18591 ft | 353 kts | 312° |
| 2026-05-09 11:42 | 37.31079 | 26.94383 | 18157 ft | 351 kts | 311° |
| 2026-05-09 11:43 | 37.32854 | 26.92262 | 17725 ft | 349 kts | 312° |
| 2026-05-09 11:43 | 37.34620 | 26.90153 | 17302 ft | 346 kts | 312° |
| 2026-05-09 11:43 | 37.36345 | 26.88089 | 16941 ft | 342 kts | 312° |
| 2026-05-09 11:43 | 37.38042 | 26.86065 | 16579 ft | 330 kts | 313° |
| 2026-05-09 11:44 | 37.40014 | 26.84596 | 16159 ft | 334 kts | 337° |
| 2026-05-09 11:44 | 37.42366 | 26.84421 | 15757 ft | 341 kts | 2° |
| 2026-05-09 11:44 | 37.44672 | 26.84959 | 15354 ft | 335 kts | 5° |
| 2026-05-09 11:44 | 37.46949 | 26.85509 | 14939 ft | 328 kts | 4° |
| 2026-05-09 11:45 | 37.49179 | 26.86043 | 14530 ft | 323 kts | 5° |
| 2026-05-09 11:45 | 37.51365 | 26.86566 | 14087 ft | 320 kts | 5° |
| 2026-05-09 11:45 | 37.53573 | 26.87093 | 13602 ft | 317 kts | 5° |
| 2026-05-09 11:45 | 37.55714 | 26.87605 | 13139 ft | 315 kts | 5° |
| 2026-05-09 11:46 | 37.57865 | 26.88119 | 12686 ft | 313 kts | 5° |
| 2026-05-09 11:46 | 37.59997 | 26.88629 | 12238 ft | 311 kts | 5° |
| 2026-05-09 11:46 | 37.62122 | 26.89162 | 11781 ft | 310 kts | 9° |
| 2026-05-09 11:46 | 37.64211 | 26.90073 | 11312 ft | 312 kts | 15° |
| 2026-05-09 11:47 | 37.66313 | 26.91090 | 10820 ft | 311 kts | 16° |
| 2026-05-09 11:47 | 37.68321 | 26.92046 | 10346 ft | 310 kts | 16° |
| 2026-05-09 11:47 | 37.70335 | 26.93000 | 9865 ft | 309 kts | 15° |
| 2026-05-09 11:47 | 37.72349 | 26.93966 | 9385 ft | 307 kts | 16° |
| 2026-05-09 11:48 | 37.74353 | 26.94914 | 8918 ft | 306 kts | 16° |
| 2026-05-09 11:48 | 37.76335 | 26.95826 | 8502 ft | 303 kts | 16° |
| 2026-05-09 11:48 | 37.78223 | 26.97050 | 8116 ft | 304 kts | 39° |
| 2026-05-09 11:48 | 37.79388 | 26.99267 | 7755 ft | 304 kts | 72° |
| 2026-05-09 11:49 | 37.79487 | 27.01932 | 7375 ft | 296 kts | 103° |
| 2026-05-09 11:49 | 37.78643 | 27.04218 | 7006 ft | 285 kts | 134° |
| 2026-05-09 11:49 | 37.77035 | 27.05518 | 6647 ft | 271 kts | 168° |
| 2026-05-09 11:49 | 37.75187 | 27.05451 | 6288 ft | 259 kts | 200° |
| 2026-05-09 11:50 | 37.73544 | 27.04563 | 5993 ft | 252 kts | 212° |
| 2026-05-09 11:50 | 37.72408 | 27.02963 | 5742 ft | 243 kts | 248° |
| 2026-05-09 11:50 | 37.72312 | 27.00906 | 5499 ft | 240 kts | 284° |
| 2026-05-09 11:50 | 37.73357 | 26.99126 | 5223 ft | 244 kts | 325° |
| 2026-05-09 11:51 | 37.74999 | 26.98620 | 4966 ft | 247 kts | 4° |
| 2026-05-09 11:51 | 37.76546 | 26.99473 | 4711 ft | 247 kts | 42° |
| 2026-05-09 11:51 | 37.77352 | 27.01330 | 4459 ft | 245 kts | 81° |
| 2026-05-09 11:51 | 37.77070 | 27.03414 | 4210 ft | 239 kts | 121° |
| 2026-05-09 11:52 | 37.75875 | 27.04725 | 4030 ft | 230 kts | 158° |
| 2026-05-09 11:52 | 37.74330 | 27.05097 | 3785 ft | 224 kts | 181° |
| 2026-05-09 11:52 | 37.72836 | 27.04691 | 3634 ft | 216 kts | 203° |
| 2026-05-09 11:52 | 37.71541 | 27.03732 | 3325 ft | 216 kts | 215° |
| 2026-05-09 11:53 | 37.70607 | 27.02404 | 3034 ft | 191 kts | 236° |
| 2026-05-09 11:53 | 37.70060 | 27.00938 | 2438 ft | 182 kts | 246° |
| 2026-05-09 11:53 | 37.69623 | 26.99521 | 2012 ft | 164 kts | 247° |
| 2026-05-09 11:53 | 37.69214 | 26.98249 | 1537 ft | 153 kts | 244° |
| 2026-05-09 11:54 | 37.68888 | 26.97024 | 1128 ft | 142 kts | 251° |
| 2026-05-09 11:54 | 37.68712 | 26.95802 | 752 ft | 137 kts | 261° |
| 2026-05-09 11:54 | 37.68697 | 26.94593 | 509 ft | 135 kts | 270° |
| 2026-05-09 11:54 | 37.68789 | 26.93437 | 263 ft | 133 kts | 274° |
| 2026-05-09 11:55 | 37.68854 | 26.92289 | 80 ft | 125 kts | 271° |
| 2026-05-09 11:56 | 37.69002 | 26.90135 | 38 ft | 10 kts | 80° |
| 2026-05-09 11:56 | 37.68973 | 26.90264 | 37 ft | 18 kts | 94° |
| 2026-05-09 11:56 | 37.68962 | 26.90450 | 35 ft | 26 kts | 95° |
| 2026-05-09 11:57 | 37.68947 | 26.90678 | 34 ft | 25 kts | 95° |
| 2026-05-09 11:57 | 37.68932 | 26.90896 | 34 ft | 23 kts | 94° |
| 2026-05-09 11:57 | 37.68950 | 26.91050 | 34 ft | 8 kts | 24° |
| 2026-05-09 11:57 | 37.69007 | 26.91076 | 34 ft | 8 kts | 56° |
| 2026-05-09 11:58 | 37.69009 | 26.91147 | 34 ft | 8 kts | 94° |
| 2026-05-09 11:58 | 37.69025 | 26.91184 | 35 ft | 4 kts | 14° |
| 2026-05-09 11:58 | 37.69049 | 26.91186 | 36 ft | 2 kts | 2° |
| 2026-05-09 11:58 | 37.69064 | 26.91188 | 36 ft | 2 kts | 5° |
| 2026-05-09 11:59 | 37.69070 | 26.91188 | 36 ft | 0 kts | 5° |